KLTS

Altus Air Force Base

Airport
ICAO code
KLTS
IATA Code
LTS
Summary
ICAO Region
NAM
ICAO Territory
Location

Altus, Oklahoma

Serving
Altus
Elevation
1382 ft
Coordinates
34° 39' 2" N , 99° 16' 54" W
KCC
Metar
KLTS 181655Z 34023G27KT 7SM FEW220 18/07 A2999 RMK AO2A PK WND 33033/02 SLP146 T01780069 $

Description

Altus Air Force Base is a United States Air Force installation located approximately 4 nm east-northeast of the central business district of Altus, Oklahoma.

Runways

Designator Length Width Surface Rops
17/35 1067 29 ASP No/No
174/354 1067 29 ASPH No/No
17L/35R 2743 46 ASP Yes/Yes
17R/35L 4097 46 CON Yes/Yes

Airport map

Aerial View

SKYbrary Partners:

Safety knowledge contributed by: